Share

Warroad, MN

Warroad International-Carlson (KRRT) Elev 1073 ft | 48.94 °N, 95.35 °W | Change Station

Current weather conditions updated 16 minutes ago

Overcast
Overcast
43 °F
Feels Like 36 °F
N
14
Wind Variable Wind from West
Gusts 18 mph
Sunrise 6:18 AM
Sunset 8:22 PM
Moon Waning Gibbous

Today is forecast to be Much Cooler than yesterday.

Pressure 29.86 in
Visibility 10.0 miles
Clouds Overcast 7500 ft
Windchill 36 °F
Dew Point 37 °F
Humidity 81%
Rainfall 0.00 in
Snow Depth Not available.
UV 0 out of 16
Pollen 9.50 out of 12
Air Quality Not available.
Flu Activity Sporadic
METAR KRRT 211014Z AUTO 28012G16KT 10SM OVC075 06/03 A2986 RMK AO2

More Conditions Fewer Conditions

Pressure 29.86 in
Visibility 10.0 miles
Clouds Overcast 7500 ft
Windchill 36 °F
Dew Point 37 °F
Humidity 81%
Rainfall 0.00 in
Snow Depth Not available.
UV 0 out of 16
Pollen 9.50 out of 12
Air Quality Not available.
Flu Activity Sporadic
METAR KRRT 211014Z AUTO 28012G16KT 10SM OVC075 06/03 A2986 RMK AO2

More Conditions Fewer Conditions

10-Day Weather Forecast

Almanac

Astronomy

Apr. 21, 2014 Rise Set
Actual Time 6:18 AM CDT 8:22 PM CDT
Civil Twilight 5:44 AM CDT 8:56 PM CDT
Nautical Twilight 5:02 AM CDT 9:39 PM CDT
Astronomical Twilight 4:15 AM CDT 10:26 PM CDT
Moon 2:00 AM CDT 11:39 AM CDT
Length of Visible Light 15h 12m
Length of Day
14h 03m
Tomorrow will be 3m 23s longer.
Waning Gibbous, 60% of the Moon is Illuminated
Today
Waning Gibbous
Apr 22
Last Quarter
Apr 29
New
May 6
First Quarter
May 14
Full

Today's Extremes

State Highs State Lows

Community

  • Snowy Robin
    Snowy Robin
  • Sun Pillar and Geese
    Sun Pillar and Geese
  • Showers on the Way
    Showers on the Way
  • Easter Morning Fog
    Easter Morning Fog
  • Easter Dance
    Easter Dance

WunderPhotos

Upload Photos

1,703,587 photos uploaded!

WunderBlogs® & News

Nearby

Snow Depth

Station Depth Elevation
No new snow has been reported.

Coastal Water Temperatures

Place Temperature
No Stations Reporting

Earthquake Activity

City Distance Mag. Time & Date
No recent earthquake activity has been reported nearby.
Minimum magnitude displayed is 2.5.

Nearby Weather Stations

Station Location Temp. Windchill Dew Point Humidity Wind Precip. Elev Updated Type
RAWS ROSEAU MN, Roseau, MN 41 °F 34 °F 37 °F 86% WNW  at  12 mph 0.00 in / hr 1046 ft 4:08 AM CDT MADIS

Show More Stations Show Fewer Stations

What do you think?

We're not finished. Please let us know what you like, what you don't like, and what you are still missing.